CheckWX is a tool to help pilots better visualize weather data.  It is not intended as a substitute for an official pre-flight weather briefing.

10:52:49 UTC

KBNA TAF
Nashville International Airport
Nashville, Tennessee, USA
KBNA 140520Z 1406/1506 28005KT 6SM BR OVC007 FM141500 28005KT P6SM OVC015 FM141800 26007KT P6SM OVC035

Dec-14@
06:00 UTC

Dec-14 @ 06:00 UTC

Dec-14@
15:00 UTC

Dec-14 @ 15:00 UTC

KBNA 140520Z 1406/1506 28005KT 6SM BR OVC007
Wind
  • 280° at 5 KTS
Conditions
Mist
Cloud Levels
  • Overcast at 700' AGL

Dec-14@
15:00 UTC

Dec-14 @ 15:00 UTC

Dec-14@
18:00 UTC

Dec-14 @ 18:00 UTC

FM141500 28005KT P6SM OVC015

From

From Standard forecast or significant change

Wind
  • 280° at 5 KTS
Cloud Levels
  • Overcast at 1,500' AGL

Dec-14@
18:00 UTC

Dec-14 @ 18:00 UTC

Dec-15@
06:00 UTC

Dec-15 @ 06:00 UTC

FM141800 26007KT P6SM OVC035

From

From Standard forecast or significant change

Wind
  • 260° at 7 KTS
Cloud Levels
  • Overcast at 3,500' AGL